Time;durP1;ratioP1;P1;durP2;ratioP2;P2;SDS_P1;SDS_P2;PMS_P1;PMS_P2;Temp;Humidity;BMP_temperature;BMP_pressure;BME280_temperature;BME280_humidity;BME280_pressure;Samples;Min_cycle;Max_cycle;Signal;HPM_P1;HPM_P2
2023/06/10 00:02:16;;;;;;;11.10;7.18;;;;;;;16.79;100.00;100623.19;6170267;23;20062;-84
2023/06/10 00:04:42;;;;;;;10.70;7.18;;;;;;;16.74;100.00;100611.28;6219835;23;20004;-84
2023/06/10 00:07:08;;;;;;;13.80;9.27;;;;;;;16.76;100.00;100607.31;6194919;23;20004;-85
2023/06/10 00:09:36;;;;;;;12.88;6.90;;;;;;;16.75;100.00;100610.22;6195000;23;20030;-84
2023/06/10 00:12:04;;;;;;;9.10;6.57;;;;;;;16.74;100.00;100614.00;6194822;23;20082;-84
2023/06/10 00:14:30;;;;;;;11.68;8.70;;;;;;;16.71;100.00;100599.00;6194340;23;20027;-84
2023/06/10 00:16:57;;;;;;;13.80;8.50;;;;;;;16.73;100.00;100602.31;6219746;23;20012;-84
2023/06/10 00:19:30;;;;;;;11.65;8.75;;;;;;;16.76;100.00;100610.03;6195103;23;20019;-85
2023/06/10 00:21:56;;;;;;;17.05;9.60;;;;;;;16.67;100.00;100597.75;6196133;23;20016;-85
2023/06/10 00:24:22;;;;;;;12.45;8.75;;;;;;;16.71;100.00;100599.81;6219729;23;20068;-86
2023/06/10 00:26:49;;;;;;;16.67;9.43;;;;;;;16.68;100.00;100602.97;6194833;23;20325;-85
2023/06/10 00:29:15;;;;;;;10.38;7.57;;;;;;;16.66;100.00;100602.34;6194037;23;20004;-85
2023/06/10 00:31:41;;;;;;;13.63;8.10;;;;;;;16.68;100.00;100594.84;6169987;23;20012;-85
2023/06/10 00:34:07;;;;;;;11.05;7.22;;;;;;;16.73;100.00;100601.50;6169853;23;20328;-85
2023/06/10 00:36:33;;;;;;;18.60;10.50;;;;;;;16.60;100.00;100581.53;6246103;23;20447;-83
2023/06/10 00:38:58;;;;;;;14.00;8.85;;;;;;;16.59;100.00;100590.75;6194580;23;20012;-85
2023/06/10 00:41:26;;;;;;;13.27;8.32;;;;;;;16.57;100.00;100595.56;6169832;23;20087;-85
2023/06/10 00:43:52;;;;;;;13.05;8.85;;;;;;;16.55;100.00;100594.09;6194976;23;20432;-82
2023/06/10 00:46:18;;;;;;;12.23;8.52;;;;;;;16.54;100.00;100596.00;6169693;23;20016;-84
2023/06/10 00:48:45;;;;;;;14.52;9.10;;;;;;;16.51;100.00;100588.25;6169760;23;20008;-84
2023/06/10 00:51:11;;;;;;;16.98;9.23;;;;;;;16.47;100.00;100585.16;6169825;23;20305;-82
2023/06/10 00:53:39;;;;;;;12.32;8.00;;;;;;;16.42;100.00;100589.59;6169745;23;20036;-84
2023/06/10 00:56:06;;;;;;;15.20;8.93;;;;;;;16.31;100.00;100577.56;6169757;23;20008;-84
2023/06/10 00:58:32;;;;;;;8.23;6.82;;;;;;;16.32;100.00;100583.81;6194337;23;20031;-84
2023/06/10 01:01:01;;;;;;;18.02;9.55;;;;;;;16.27;100.00;100588.03;6180251;23;20050;-85
2023/06/10 01:03:36;;;;;;;14.88;9.70;;;;;;;16.25;100.00;100579.25;6198678;23;20008;-83
2023/06/10 01:06:09;;;;;;;13.30;8.95;;;;;;;16.31;100.00;100571.28;6194513;23;20009;-86
2023/06/10 01:08:41;;;;;;;9.07;6.70;;;;;;;16.33;100.00;100580.06;6244831;23;20086;-85
2023/06/10 01:11:09;;;;;;;10.82;7.65;;;;;;;16.38;100.00;100574.78;6244734;23;20015;-85
2023/06/10 01:13:36;;;;;;;16.02;9.43;;;;;;;16.42;100.00;100579.56;6244820;23;20039;-83
2023/06/10 01:16:01;;;;;;;15.55;9.13;;;;;;;16.43;100.00;100569.53;6244729;23;20007;-85
2023/06/10 01:18:31;;;;;;;12.95;9.02;;;;;;;16.45;100.00;100572.88;6194415;23;20332;-86
2023/06/10 01:20:57;;;;;;;11.50;7.88;;;;;;;16.46;100.00;100571.84;6244419;23;20066;-85
2023/06/10 01:23:23;;;;;;;14.48;9.20;;;;;;;16.45;100.00;100567.44;6244563;23;20004;-86
2023/06/10 01:26:09;;;;;;;15.40;7.93;;;;;;;16.41;100.00;100569.78;6194587;23;20087;-85
2023/06/10 01:28:47;;;;;;;15.70;9.60;;;;;;;16.30;100.00;100551.47;6219308;23;20015;-83
2023/06/10 01:31:37;;;;;;;13.60;7.85;;;;;;;16.39;100.00;100562.91;6194645;23;20016;-84
2023/06/10 01:34:08;;;;;;;8.82;6.80;;;;;;;16.33;100.00;100559.19;6244829;23;20042;-85
2023/06/10 01:36:34;;;;;;;11.07;8.20;;;;;;;16.36;100.00;100557.91;6219306;23;20012;-83
2023/06/10 01:39:00;;;;;;;15.82;9.07;;;;;;;16.35;100.00;100559.75;6219476;23;20004;-84
2023/06/10 01:41:27;;;;;;;15.35;8.52;;;;;;;16.34;100.00;100554.56;6218985;23;20012;-85
2023/06/10 01:43:54;;;;;;;11.52;7.65;;;;;;;16.31;100.00;100550.41;6221276;23;20010;-84
2023/06/10 01:46:21;;;;;;;13.48;8.23;;;;;;;16.22;100.00;100539.00;6220822;23;20370;-85
2023/06/10 01:48:47;;;;;;;13.73;8.75;;;;;;;16.30;100.00;100546.06;6221375;23;20071;-84
2023/06/10 01:51:13;;;;;;;13.32;8.43;;;;;;;16.19;100.00;100531.28;6220906;23;20035;-84
2023/06/10 01:53:38;;;;;;;17.60;9.57;;;;;;;16.07;100.00;100507.81;6196216;23;20012;-83
2023/06/10 01:56:04;;;;;;;15.32;8.68;;;;;;;16.20;100.00;100532.97;6195910;23;20057;-84
2023/06/10 01:58:30;;;;;;;13.25;7.57;;;;;;;16.17;100.00;100530.69;6220975;23;20000;-85
2023/06/10 02:00:56;;;;;;;15.05;8.57;;;;;;;16.09;100.00;100528.25;6195800;23;20012;-85
2023/06/10 02:03:21;;;;;;;12.82;7.38;;;;;;;16.08;100.00;100528.44;6195953;23;20008;-84
2023/06/10 02:05:47;;;;;;;10.57;6.68;;;;;;;16.05;100.00;100522.41;6195967;23;20096;-84
2023/06/10 02:08:13;;;;;;;16.10;7.85;;;;;;;15.96;100.00;100528.31;6195072;23;20008;-85
2023/06/10 02:10:38;;;;;;;9.55;6.95;;;;;;;15.87;100.00;100529.59;6195925;23;20488;-82
2023/06/10 02:13:07;;;;;;;13.90;6.88;;;;;;;15.66;100.00;100504.41;6195885;23;20008;-85
2023/06/10 02:15:32;;;;;;;10.80;6.18;;;;;;;15.62;100.00;100522.19;6196183;23;20000;-84
2023/06/10 02:17:59;;;;;;;16.65;9.00;;;;;;;15.52;100.00;100519.91;6195793;23;20038;-83
2023/06/10 02:20:25;;;;;;;12.85;8.50;;;;;;;15.45;100.00;100513.69;6220597;23;20007;-82
2023/06/10 02:22:50;;;;;;;11.10;8.30;;;;;;;15.44;100.00;100524.75;6195867;23;20016;-84
2023/06/10 02:25:16;;;;;;;13.75;7.78;;;;;;;15.42;100.00;100529.53;6247168;23;20008;-84
2023/06/10 02:27:42;;;;;;;10.65;6.72;;;;;;;15.36;100.00;100532.06;6195826;23;20491;-84
2023/06/10 02:30:10;;;;;;;14.15;7.25;;;;;;;15.34;100.00;100534.13;6195767;23;20455;-85
2023/06/10 02:32:36;;;;;;;15.80;9.15;;;;;;;15.03;100.00;100487.97;6196158;23;20012;-83
2023/06/10 02:35:02;;;;;;;9.68;6.32;;;;;;;15.32;100.00;100546.22;6220810;23;20010;-87
2023/06/10 02:37:27;;;;;;;14.25;10.40;;;;;;;15.32;100.00;100547.09;6195620;23;20087;-83
2023/06/10 02:39:53;;;;;;;17.60;9.13;;;;;;;15.31;100.00;100542.69;6220611;23;20008;-84
2023/06/10 02:42:19;;;;;;;13.35;8.63;;;;;;;15.25;100.00;100538.13;6195614;23;20012;-84
2023/06/10 02:44:45;;;;;;;15.82;9.70;;;;;;;15.28;100.00;100548.53;6220422;23;20004;-82
2023/06/10 02:47:10;;;;;;;12.45;8.15;;;;;;;15.27;100.00;100544.19;6195613;23;20004;-84
2023/06/10 02:49:36;;;;;;;11.90;6.88;;;;;;;15.29;100.00;100550.19;6195542;23;20014;-85
2023/06/10 02:52:02;;;;;;;13.38;9.70;;;;;;;15.31;100.00;100550.00;6195365;23;20008;-85
2023/06/10 02:54:28;;;;;;;10.60;6.25;;;;;;;15.30;100.00;100559.19;6195308;23;20011;-83
2023/06/10 02:56:55;;;;;;;13.77;9.30;;;;;;;15.24;100.00;100550.03;6195424;23;20095;-85
2023/06/10 02:59:22;;;;;;;16.00;8.80;;;;;;;15.26;100.00;100566.03;6220947;23;20091;-85
2023/06/10 03:01:48;;;;;;;15.10;9.23;;;;;;;15.30;100.00;100570.00;6220079;23;20004;-82
2023/06/10 03:04:14;;;;;;;18.25;9.15;;;;;;;15.28;100.00;100558.53;6195434;23;20015;-85
2023/06/10 03:06:42;;;;;;;8.38;5.75;;;;;;;15.27;100.00;100565.84;6195323;23;20004;-85
2023/06/10 03:09:08;;;;;;;17.48;10.68;;;;;;;15.34;100.00;100568.53;6245581;23;20018;-85
2023/06/10 03:11:34;;;;;;;14.07;8.65;;;;;;;15.33;100.00;100600.22;6195031;23;20386;-84
2023/06/10 03:13:59;;;;;;;16.00;9.35;;;;;;;15.35;100.00;100592.72;6195227;23;20024;-85
2023/06/10 03:16:25;;;;;;;18.48;8.27;;;;;;;15.35;100.00;100598.13;6195192;23;20333;-84
2023/06/10 03:18:51;;;;;;;15.27;8.63;;;;;;;15.37;100.00;100598.75;6195238;23;20007;-87
2023/06/10 03:21:16;;;;;;;9.93;5.97;;;;;;;15.17;100.00;100589.81;6195293;23;20023;-87
2023/06/10 03:23:42;;;;;;;15.05;9.15;;;;;;;15.00;100.00;100580.44;6195254;23;20499;-86
2023/06/10 03:26:09;;;;;;;12.93;8.13;;;;;;;14.99;100.00;100595.03;6195311;23;20372;-87
2023/06/10 03:28:35;;;;;;;17.73;9.93;;;;;;;14.89;100.00;100582.72;6220513;23;20005;-88
2023/06/10 03:31:01;;;;;;;14.95;7.47;;;;;;;14.85;100.00;100575.25;6219984;23;20000;-88
2023/06/10 03:33:27;;;;;;;17.55;8.93;;;;;;;14.78;100.00;100577.94;6195262;23;20503;-88
2023/06/10 03:35:52;;;;;;;12.55;7.35;;;;;;;14.72;100.00;100576.91;6195032;23;20087;-86
2023/06/10 03:38:18;;;;;;;14.23;8.25;;;;;;;14.58;100.00;100585.22;6195087;23;20008;-87
2023/06/10 03:40:44;;;;;;;18.30;9.43;;;;;;;14.35;100.00;100567.47;6195224;23;20046;-87
2023/06/10 03:43:09;;;;;;;23.40;10.40;;;;;;;14.25;100.00;100557.03;6194987;23;20337;-84
2023/06/10 03:45:36;;;;;;;13.48;7.90;;;;;;;14.17;100.00;100570.75;6220165;23;20004;-87
2023/06/10 03:48:03;;;;;;;10.50;6.78;;;;;;;14.11;100.00;100570.75;6220154;23;20011;-87
2023/06/10 03:50:29;;;;;;;0.68;0.68;;;;;;;13.97;100.00;100556.34;6220346;23;20012;-85
2023/06/10 03:52:55;;;;;;;0.20;0.20;;;;;;;14.01;100.00;100576.53;6245141;23;20013;-84
2023/06/10 03:55:21;;;;;;;0.82;0.82;;;;;;;13.96;100.00;100565.50;6219860;23;20004;-83
2023/06/10 03:57:48;;;;;;;0.20;0.20;;;;;;;14.07;100.00;100568.44;6220073;23;20448;-84
2023/06/10 04:00:16;;;;;;;0.30;0.30;;;;;;;14.06;100.00;100569.47;6245176;23;20006;-81
2023/06/10 04:02:45;;;;;;;0.40;0.40;;;;;;;13.93;100.00;100553.22;6220109;23;20091;-82
2023/06/10 04:05:12;;;;;;;0.63;0.63;;;;;;;14.04;100.00;100554.50;6220194;23;20091;-83
2023/06/10 04:07:40;;;;;;;0.20;0.20;;;;;;;14.02;100.00;100549.28;6194733;23;20429;-83
2023/06/10 04:10:07;;;;;;;0.20;0.20;;;;;;;14.00;100.00;100548.69;6245204;23;20127;-83
2023/06/10 04:12:33;;;;;;;0.20;0.20;;;;;;;13.95;100.00;100543.03;6244992;23;20027;-83
2023/06/10 04:14:59;;;;;;;0.22;0.22;;;;;;;13.95;100.00;100550.31;6194464;23;20004;-85
2023/06/10 04:17:25;;;;;;;0.20;0.20;;;;;;;13.84;100.00;100532.81;6194820;23;20426;-83
2023/06/10 04:19:51;;;;;;;0.30;0.30;;;;;;;13.92;100.00;100540.75;6219694;23;20011;-84
2023/06/10 04:22:17;;;;;;;0.30;0.30;;;;;;;13.91;100.00;100528.25;6244752;23;20011;-83
2023/06/10 04:24:44;;;;;;;0.20;0.20;;;;;;;13.88;100.00;100523.25;6244750;23;20036;-84
2023/06/10 04:27:10;;;;;;;0.55;0.55;;;;;;;13.90;100.00;100526.59;6194638;23;20062;-82
2023/06/10 04:29:36;;;;;;;0.20;0.20;;;;;;;13.85;100.00;100526.38;6245069;23;20075;-83
2023/06/10 04:32:02;;;;;;;0.82;0.82;;;;;;;13.78;100.00;100509.28;6244671;23;20000;-83
2023/06/10 04:34:28;;;;;;;0.20;0.20;;;;;;;13.83;100.00;100514.94;6194531;23;20007;-85
2023/06/10 04:36:54;;;;;;;0.28;0.28;;;;;;;13.86;100.00;100509.09;6194256;23;20008;-83
2023/06/10 04:39:19;;;;;;;0.30;0.30;;;;;;;13.85;100.00;100520.97;6169652;23;20432;-84
2023/06/10 04:41:46;;;;;;;0.20;0.20;;;;;;;13.87;100.00;100513.50;6193906;23;20135;-84
2023/06/10 04:44:12;;;;;;;0.20;0.20;;;;;;;13.91;100.00;100503.94;6194383;23;20008;-83
2023/06/10 04:46:38;;;;;;;0.20;0.20;;;;;;;13.93;100.00;100499.16;6219362;23;20035;-85
2023/06/10 04:49:04;;;;;;;0.20;0.20;;;;;;;13.99;100.00;100511.03;6219244;23;20007;-83
2023/06/10 04:51:31;;;;;;;0.30;0.30;;;;;;;14.02;100.00;100505.19;6194603;23;20011;-84
2023/06/10 04:53:57;;;;;;;0.30;0.30;;;;;;;14.05;100.00;100500.25;6244732;23;20011;-83
2023/06/10 04:56:23;;;;;;;0.20;0.20;;;;;;;14.07;100.00;100498.13;6194300;23;20498;-84
2023/06/10 04:58:49;;;;;;;0.20;0.20;;;;;;;14.08;100.00;100493.59;6194400;23;20000;-83
2023/06/10 05:01:15;;;;;;;0.20;0.20;;;;;;;14.11;100.00;100500.47;6194194;23;20063;-84
2023/06/10 05:03:41;;;;;;;0.20;0.20;;;;;;;14.10;100.00;100499.59;6193955;23;20035;-84
2023/06/10 05:06:07;;;;;;;0.20;0.20;;;;;;;14.12;100.00;100497.53;6244736;23;20134;-85
2023/06/10 05:08:33;;;;;;;0.30;0.30;;;;;;;14.14;100.00;100491.94;6246167;23;20000;-83
2023/06/10 05:10:59;;;;;;;0.30;0.30;;;;;;;14.00;100.00;100478.38;6169740;23;20138;-83
2023/06/10 05:13:24;;;;;;;0.20;0.20;;;;;;;14.12;100.00;100497.53;6244773;23;20441;-82
2023/06/10 05:15:50;;;;;;;0.20;0.20;;;;;;;14.10;100.00;100488.78;6246265;23;20027;-84
2023/06/10 05:18:15;;;;;;;0.30;0.30;;;;;;;14.05;100.00;100475.91;6248208;22;20031;-83
2023/06/10 05:20:41;;;;;;;0.20;0.20;;;;;;;14.16;100.00;100487.97;6247794;22;20007;-82
2023/06/10 05:23:07;;;;;;;0.20;0.20;;;;;;;14.19;100.00;100475.91;6196186;23;20000;-84
2023/06/10 05:25:32;;;;;;;0.30;0.30;;;;;;;14.27;100.00;100483.84;6246739;23;20004;-84
2023/06/10 05:27:58;;;;;;;0.30;0.30;;;;;;;14.22;100.00;100486.31;6221454;23;20008;-85
2023/06/10 05:30:25;;;;;;;0.20;0.20;;;;;;;14.19;100.00;100492.16;6246613;23;20039;-84
2023/06/10 05:32:53;;;;;;;0.20;0.20;;;;;;;14.18;100.00;100485.06;6221636;23;20000;-84
2023/06/10 05:35:19;;;;;;;0.20;0.20;;;;;;;14.19;100.00;100486.75;6246514;23;20486;-84
2023/06/10 05:37:45;;;;;;;0.20;0.20;;;;;;;14.18;100.00;100482.34;6221347;23;20000;-85
2023/06/10 05:40:11;;;;;;;0.20;0.20;;;;;;;14.14;100.00;100463.00;6246517;23;20035;-85
2023/06/10 05:42:36;;;;;;;0.20;0.20;;;;;;;14.29;100.00;100476.34;6195967;23;20336;-84
2023/06/10 05:45:03;;;;;;;0.30;0.30;;;;;;;14.34;100.00;100481.94;6246386;23;20007;-84
2023/06/10 05:47:28;;;;;;;0.30;0.30;;;;;;;14.39;100.00;100481.31;6246180;23;20452;-83
2023/06/10 05:49:56;;;;;;;0.30;0.30;;;;;;;14.44;100.00;100485.06;6246334;23;20004;-83
2023/06/10 05:52:22;;;;;;;0.30;0.30;;;;;;;14.41;100.00;100466.56;6195958;23;20015;-84
2023/06/10 05:54:49;;;;;;;0.30;0.30;;;;;;;14.51;100.00;100472.38;6221002;23;20004;-83
2023/06/10 05:57:15;;;;;;;0.20;0.20;;;;;;;14.55;100.00;100489.06;6246162;23;20098;-83
2023/06/10 05:59:41;;;;;;;0.20;0.20;;;;;;;14.54;100.00;100481.16;6220945;23;20004;-85
2023/06/10 06:02:06;;;;;;;0.30;0.30;;;;;;;14.51;100.00;100480.50;6195936;23;20333;-84
2023/06/10 06:04:32;;;;;;;0.20;0.20;;;;;;;14.50;100.00;100478.84;6220589;23;20004;-84
2023/06/10 06:06:58;;;;;;;0.30;0.30;;;;;;;14.45;100.00;100470.53;6220824;23;20000;-86
2023/06/10 06:09:23;;;;;;;0.30;0.30;;;;;;;14.53;100.00;100485.75;6220395;23;20010;-85
2023/06/10 06:11:49;;;;;;;0.30;0.30;;;;;;;14.43;100.00;100474.47;6220800;23;20015;-84
2023/06/10 06:14:15;;;;;;;0.30;0.30;;;;;;;14.49;100.00;100490.69;6195087;23;20062;-87
2023/06/10 06:16:40;;;;;;;0.30;0.30;;;;;;;14.52;100.00;100492.16;6220462;23;20451;-84
2023/06/10 06:19:06;;;;;;;0.30;0.30;;;;;;;14.55;100.00;100491.75;6195691;23;20014;-84
2023/06/10 06:21:32;;;;;;;0.25;0.25;;;;;;;14.57;100.00;100505.09;6220630;23;20004;-86
2023/06/10 06:23:58;;;;;;;0.20;0.20;;;;;;;14.54;100.00;100492.81;6195495;23;20004;-84
2023/06/10 06:26:25;;;;;;;0.52;0.52;;;;;;;14.50;100.00;100486.97;6245567;23;20012;-84
2023/06/10 06:28:51;;;;;;;0.32;0.32;;;;;;;14.56;100.00;100503.44;6220337;23;20004;-85
2023/06/10 06:31:17;;;;;;;0.22;0.22;;;;;;;14.56;100.00;100498.84;6245470;23;20004;-84
2023/06/10 06:33:43;;;;;;;0.30;0.30;;;;;;;14.59;100.00;100497.59;6195377;23;20015;-84
2023/06/10 06:36:09;;;;;;;0.20;0.20;;;;;;;14.50;100.00;100483.41;6245394;23;20018;-84
2023/06/10 06:38:34;;;;;;;0.20;0.20;;;;;;;14.52;100.00;100501.13;6220482;23;20494;-84
2023/06/10 06:41:02;;;;;;;0.20;0.20;;;;;;;14.54;100.00;100500.94;6245509;23;20000;-82
2023/06/10 06:43:30;;;;;;;0.40;0.40;;;;;;;14.50;100.00;100494.22;6247626;23;20011;-85
2023/06/10 06:45:57;;;;;;;0.20;0.20;;;;;;;14.50;100.00;100494.22;6220602;23;20004;-83
2023/06/10 06:48:23;;;;;;;0.30;0.30;;;;;;;14.47;100.00;100498.22;6220745;23;20008;-84
2023/06/10 06:50:49;;;;;;;0.30;0.30;;;;;;;14.46;100.00;100488.41;6220340;23;20008;-84
2023/06/10 06:53:14;;;;;;;0.20;0.20;;;;;;;14.42;100.00;100494.44;6245477;23;20428;-83
2023/06/10 06:55:40;;;;;;;0.20;0.20;;;;;;;14.40;100.00;100494.66;6245703;23;20053;-83
2023/06/10 06:58:06;;;;;;;0.20;0.20;;;;;;;14.39;100.00;100509.22;6220216;23;20004;-86
2023/06/10 07:00:32;;;;;;;0.30;0.30;;;;;;;14.38;100.00;100510.25;6195220;23;20093;-88
2023/06/10 07:02:58;;;;;;;0.30;0.30;;;;;;;14.35;100.00;100505.25;6220200;23;20333;-87
2023/06/10 07:05:27;;;;;;;0.20;0.20;;;;;;;14.36;100.00;100501.50;6195045;23;20007;-87
2023/06/10 07:07:54;;;;;;;0.28;0.28;;;;;;;14.36;100.00;100503.38;6221190;23;20028;-86
2023/06/10 07:10:24;;;;;;;0.20;0.20;;;;;;;14.35;100.00;100499.03;6222396;23;20022;-88
2023/06/10 07:12:50;;;;;;;0.25;0.25;;;;;;;14.33;100.00;100499.22;6196623;23;20051;-88
2023/06/10 07:15:16;;;;;;;0.30;0.30;;;;;;;14.34;100.00;100492.75;6245946;23;20008;-87
2023/06/10 07:17:42;;;;;;;0.28;0.28;;;;;;;14.31;100.00;100495.88;6195377;23;20365;-86
2023/06/10 07:20:08;;;;;;;0.30;0.30;;;;;;;14.27;100.00;100484.66;6219814;23;20421;-86
2023/06/10 07:22:33;;;;;;;0.30;0.30;;;;;;;14.34;100.00;100498.16;6245415;23;20007;-86
2023/06/10 07:24:59;;;;;;;0.50;0.50;;;;;;;14.39;100.00;100501.09;6246470;23;20000;-86
2023/06/10 07:27:25;;;;;;;0.20;0.20;;;;;;;14.49;100.00;100500.69;6195211;23;20004;-87
2023/06/10 07:29:51;;;;;;;0.30;0.30;;;;;;;14.65;100.00;100496.75;6220270;23;20036;-88
2023/06/10 07:32:17;;;;;;;0.20;0.20;;;;;;;14.84;100.00;100498.63;6220392;23;20082;-86
2023/06/10 07:34:42;;;;;;;0.20;0.20;;;;;;;14.92;100.00;100500.28;6220317;23;20417;-88
2023/06/10 07:37:08;;;;;;;0.30;0.30;;;;;;;14.97;100.00;100489.66;6244938;23;20459;-88
2023/06/10 07:39:34;;;;;;;0.30;0.30;;;;;;;14.94;100.00;100487.34;6245686;23;20085;-89
2023/06/10 07:42:00;;;;;;;0.20;0.20;;;;;;;14.93;100.00;100502.78;6245500;23;20337;-86
2023/06/10 07:44:26;;;;;;;0.43;0.43;;;;;;;14.88;100.00;100494.47;6220140;23;20078;-89
2023/06/10 07:46:52;;;;;;;0.20;0.20;;;;;;;14.89;100.00;100498.81;6220188;23;20446;-88
2023/06/10 07:49:17;;;;;;;0.30;0.30;;;;;;;14.82;100.00;100498.00;6220371;23;20004;-89
2023/06/10 07:51:43;;;;;;;0.20;0.20;;;;;;;14.79;100.00;100486.75;6220233;23;20064;-88
2023/06/10 07:54:08;;;;;;;0.30;0.30;;;;;;;14.89;100.00;100498.81;6245389;23;20425;-91
2023/06/10 07:56:34;;;;;;;0.30;0.30;;;;;;;14.89;100.00;100498.00;6219719;23;20004;-87
2023/06/10 07:59:00;;;;;;;0.20;0.20;;;;;;;14.96;100.00;100498.81;6245428;23;20374;-87
2023/06/10 08:01:25;;;;;;;0.30;0.30;;;;;;;14.92;100.00;100482.19;6195146;23;20336;-89
2023/06/10 08:03:51;;;;;;;0.30;0.30;;;;;;;15.16;100.00;100509.59;6245109;23;20000;-89
2023/06/10 08:06:17;;;;;;;0.30;0.30;;;;;;;15.28;100.00;100510.63;6245292;23;20014;-87
2023/06/10 08:08:43;;;;;;;0.20;0.20;;;;;;;15.40;100.00;100516.22;6244826;23;20008;-88
2023/06/10 08:11:12;;;;;;;0.20;0.20;;;;;;;15.56;100.00;100523.03;6219975;23;20063;-87
2023/06/10 08:13:38;;;;;;;0.30;0.30;;;;;;;15.67;100.00;100522.38;6245252;23;20306;-88
2023/06/10 08:16:04;;;;;;;0.20;0.20;;;;;;;15.66;100.00;100517.97;6244804;23;20058;-89
2023/06/10 08:18:29;;;;;;;0.20;0.20;;;;;;;15.83;100.00;100532.75;6245098;23;20305;-88
2023/06/10 08:20:55;;;;;;;0.20;0.20;;;;;;;15.72;100.00;100524.47;6245162;23;20011;-87
2023/06/10 08:23:20;;;;;;;0.20;0.20;;;;;;;15.89;100.00;100546.50;6219719;23;20004;-87
2023/06/10 08:25:46;;;;;;;0.20;0.20;;;;;;;15.87;100.00;100549.41;6194837;23;20045;-88
2023/06/10 08:28:12;;;;;;;0.28;0.28;;;;;;;15.84;100.00;100547.13;6245117;23;20012;-86
2023/06/10 08:30:37;;;;;;;0.20;0.20;;;;;;;15.86;100.00;100530.66;6219645;23;20011;-86
2023/06/10 08:33:03;;;;;;;0.20;0.20;;;;;;;16.14;100.00;100547.41;6246422;22;20064;-85
2023/06/10 08:35:29;;;;;;;0.20;0.20;;;;;;;16.43;100.00;100545.09;6219494;23;20025;-85
2023/06/10 08:37:55;;;;;;;0.30;0.30;;;;;;;16.50;100.00;100521.47;6246912;22;20013;-88
2023/06/10 08:40:21;;;;;;;0.30;0.30;;;;;;;16.78;100.00;100542.78;6220695;23;20004;-82
2023/06/10 08:42:57;;;;;;;0.20;0.20;;;;;;;16.98;100.00;100539.88;6219777;23;20027;-83
2023/06/10 08:45:23;;;;;;;0.20;0.20;;;;;;;17.27;100.00;100532.91;6245110;23;20004;-84
2023/06/10 08:47:53;;;;;;;0.30;0.30;;;;;;;17.55;100.00;100526.94;6194545;23;20004;-80
2023/06/10 08:50:19;;;;;;;0.20;0.20;;;;;;;17.98;100.00;100522.47;6220143;23;20009;-83
2023/06/10 08:52:47;;;;;;;0.30;0.30;;;;;;;18.35;100.00;100514.19;6196550;23;20463;-81
2023/06/10 08:55:25;;;;;;;0.20;0.20;;;;;;;18.84;100.00;100514.84;6196651;23;20008;-84
2023/06/10 08:57:52;;;;;;;0.30;0.30;;;;;;;19.17;100.00;100524.34;6247426;23;20027;-81
2023/06/10 09:00:18;;;;;;;0.40;0.40;;;;;;;19.62;100.00;100519.03;6221446;23;20455;-81
2023/06/10 09:02:44;;;;;;;0.30;0.30;;;;;;;20.34;100.00;100518.50;6247115;23;19997;-81
2023/06/10 09:05:10;;;;;;;0.30;0.30;;;;;;;20.55;100.00;100518.91;6196707;23;20035;-81
2023/06/10 09:07:37;;;;;;;0.30;0.30;;;;;;;20.63;100.00;100502.09;6246822;23;20000;-81
2023/06/10 09:10:06;;;;;;;0.32;0.32;;;;;;;20.90;100.00;100512.34;6221877;23;20417;-83
2023/06/10 09:12:32;;;;;;;0.40;0.40;;;;;;;21.10;100.00;100514.56;6246523;23;20004;-79
2023/06/10 09:14:58;;;;;;;0.32;0.32;;;;;;;21.22;100.00;100518.84;6195950;23;20094;-80
2023/06/10 09:17:24;;;;;;;0.40;0.40;;;;;;;21.22;100.00;100512.53;6246723;23;20364;-82
2023/06/10 09:19:50;;;;;;;0.30;0.30;;;;;;;21.18;100.00;100500.47;6196376;23;20007;-83
2023/06/10 09:22:16;;;;;;;0.47;0.47;;;;;;;21.36;100.00;100519.31;6221065;23;20003;-80
2023/06/10 09:24:41;;;;;;;0.50;0.50;;;;;;;21.32;100.00;100506.38;6196375;23;20417;-81
2023/06/10 09:27:08;;;;;;;0.30;0.30;;;;;;;21.35;100.00;100523.09;6196403;23;20012;-83
2023/06/10 09:29:53;;;;;;;0.30;0.30;;;;;;;21.40;100.00;100530.59;6196225;23;20016;-84
2023/06/10 09:32:19;;;;;;;0.30;0.30;;;;;;;21.55;100.00;100532.72;6221344;23;20439;-84
2023/06/10 09:34:45;;;;;;;0.30;0.30;;;;;;;21.67;100.00;100523.28;6246450;23;20008;-83
2023/06/10 09:37:13;;;;;;;0.20;0.20;;;;;;;21.71;100.00;100520.88;6195964;23;20477;-84
2023/06/10 09:39:40;;;;;;;0.30;0.30;;;;;;;21.92;100.00;100524.66;6246223;23;20328;-86
2023/06/10 09:42:23;;;;;;;0.30;0.30;;;;;;;22.48;100.00;100527.16;6221128;23;20008;-81
2023/06/10 09:44:51;;;;;;;0.80;0.68;;;;;;;23.05;100.00;100507.34;6196169;23;20083;-84
2023/06/10 09:47:22;;;;;;;2.90;2.10;;;;;;;24.82;100.00;100520.19;6221224;23;20068;-83
2023/06/10 09:49:53;;;;;;;2.17;2.00;;;;;;;26.28;94.78;100530.16;6246075;23;20429;-83
2023/06/10 09:52:27;;;;;;;4.10;2.97;;;;;;;26.74;94.85;100522.34;6246611;23;19996;-82
2023/06/10 09:55:02;;;;;;;5.85;4.70;;;;;;;25.74;95.42;100523.53;6171275;23;20011;-82
2023/06/10 09:57:33;;;;;;;9.43;5.55;;;;;;;26.08;92.96;100528.34;6220911;23;20341;-83
2023/06/10 09:59:59;;;;;;;12.63;6.07;;;;;;;25.54;94.70;100529.16;6246088;23;20000;-82
2023/06/10 10:02:25;;;;;;;9.15;6.15;;;;;;;25.18;95.82;100532.81;6220924;23;20448;-83
2023/06/10 10:04:51;;;;;;;13.23;7.28;;;;;;;25.28;96.60;100542.16;6195755;23;20000;-84
2023/06/10 10:07:20;;;;;;;13.85;8.43;;;;;;;25.42;95.24;100532.19;6196051;23;20011;-82
2023/06/10 10:09:46;;;;;;;12.27;8.27;;;;;;;24.95;98.83;100539.72;6196721;23;20008;-81
2023/06/10 10:12:15;;;;;;;15.98;9.23;;;;;;;24.65;100.00;100545.22;6198583;23;20399;-77
2023/06/10 10:14:46;;;;;;;15.32;8.93;;;;;;;23.88;100.00;100532.16;6172883;23;20443;-77
2023/06/10 10:17:15;;;;;;;14.95;9.52;;;;;;;23.17;100.00;100540.84;6247034;23;19996;-75
2023/06/10 10:19:47;;;;;;;12.98;8.40;;;;;;;22.56;100.00;100534.91;6195705;23;20329;-78
2023/06/10 10:22:26;;;;;;;14.80;8.63;;;;;;;21.95;100.00;100511.28;6195917;23;20038;-79
2023/06/10 10:25:03;;;;;;;13.63;9.52;;;;;;;21.52;100.00;100534.88;6197708;23;20035;-78
2023/06/10 10:27:47;;;;;;;19.25;10.68;;;;;;;21.35;100.00;100531.31;6195646;23;20057;-78
2023/06/10 10:30:14;;;;;;;17.75;10.25;;;;;;;21.28;100.00;100515.09;6170667;23;20023;-77
2023/06/10 10:32:45;;;;;;;19.70;11.02;;;;;;;21.66;100.00;100535.31;6220647;23;20004;-78
2023/06/10 10:35:21;;;;;;;18.98;10.57;;;;;;;21.65;100.00;100536.41;6220633;23;20306;-80
2023/06/10 10:37:47;;;;;;;20.70;11.32;;;;;;;21.42;100.00;100540.19;6221442;23;20034;-78
2023/06/10 10:40:14;;;;;;;18.35;11.57;;;;;;;21.26;100.00;100541.88;6170545;23;20090;-80
2023/06/10 10:42:40;;;;;;;19.33;11.02;;;;;;;21.13;100.00;100544.94;6246753;23;20083;-78
2023/06/10 10:45:07;;;;;;;17.25;11.07;;;;;;;21.04;100.00;100541.81;6195037;23;20007;-76
2023/06/10 10:47:33;;;;;;;17.98;11.13;;;;;;;21.19;100.00;100540.38;6194948;23;20333;-79
2023/06/10 10:49:59;;;;;;;18.92;11.63;;;;;;;21.32;100.00;100534.56;6220182;23;20008;-78
2023/06/10 10:52:53;;;;;;;15.38;11.23;;;;;;;21.31;100.00;100543.84;6195387;23;20495;-77
2023/06/10 10:55:19;;;;;;;18.02;11.30;;;;;;;20.90;100.00;100543.22;6220341;23;20428;-78
2023/06/10 10:57:45;;;;;;;19.58;10.38;;;;;;;21.02;100.00;100551.34;6195145;23;20010;-78
2023/06/10 11:00:18;;;;;;;17.00;12.27;;;;;;;21.47;100.00;100544.91;6195997;23;20020;-77
2023/06/10 11:02:45;;;;;;;15.73;12.30;;;;;;;21.98;100.00;100544.72;6245631;23;20455;-78
2023/06/10 11:05:17;;;;;;;14.60;10.00;;;;;;;22.31;100.00;100536.34;6195712;23;20382;-82
2023/06/10 11:07:56;;;;;;;17.83;11.40;;;;;;;22.61;100.00;100540.44;6245447;23;20060;-77
2023/06/10 11:10:36;;;;;;;16.25;11.00;;;;;;;22.92;100.00;100549.72;6220950;23;20652;-78
2023/06/10 11:13:14;;;;;;;16.73;11.57;;;;;;;22.85;100.00;100542.81;6195237;23;20008;-82
2023/06/10 11:15:44;;;;;;;18.98;11.43;;;;;;;22.80;100.00;100543.59;6194965;23;20012;-78